ESTO weather

CLOSED Tomelilla Airfield
Tomelilla, Skåne län, Sweden

Public forecast

Using degrees Celsius for public forecast. Weather courtesy of forecast.io.

METAR (pilot weather report)

Closest report is Malmö Sturup Airport, 21.2 nm (39.3 km) W. Retrieved 2019/09/15 08:20 UTC (21 minutes ago):

ESMS 150820Z 25020KT 9999 BKN020 BKN048 16/11 Q1011

TAF (pilot weather forecast)

Closest forecast is Malmö Sturup Airport, 21.2 nm (39.3 km) W. Retrieved 2019/09/15 06:35 UTC (2 hours ago):

TAF ESMS 150501Z 1506/1606 25018KT 9999 BKN025 TEMPO 1506/1517 26022G32KT TEMPO 1517/1606 28015G28KT